createdAt,value
2022-09-04T00:04:26.385Z,1.00
2022-09-04T00:09:57.946Z,1.20
2022-09-04T00:15:20.713Z,1.20
2022-09-04T00:20:29.967Z,1.50
2022-09-04T00:25:55.084Z,0.90
2022-09-04T00:31:27.310Z,1.20
2022-09-04T00:36:31.605Z,1.50
2022-09-04T00:42:22.535Z,1.40
2022-09-04T00:48:05.472Z,1.40
2022-09-04T00:53:26.808Z,1.60
2022-09-04T00:58:33.806Z,1.60
2022-09-04T01:04:15.412Z,1.10
2022-09-04T01:09:44.743Z,1.40
2022-09-04T01:15:16.310Z,1.30
2022-09-04T01:20:39.891Z,1.50
2022-09-04T01:26:10.238Z,1.00
2022-09-04T01:31:50.385Z,1.30
2022-09-04T01:37:06.017Z,1.10
2022-09-04T01:42:18.539Z,0.90
2022-09-04T01:47:30.451Z,1.00
2022-09-04T01:53:05.918Z,1.20
2022-09-04T01:58:15.386Z,0.80
2022-09-04T02:03:41.928Z,0.90
2022-09-04T02:08:47.796Z,1.10
2022-09-04T02:14:09.027Z,1.00
2022-09-04T02:19:31.181Z,1.80
2022-09-04T02:25:00.399Z,1.30
2022-09-04T02:30:10.665Z,0.90
2022-09-04T02:35:51.463Z,1.00
2022-09-04T02:41:27.028Z,1.40
2022-09-04T02:46:38.172Z,0.90
2022-09-04T02:51:50.545Z,1.10
2022-09-04T02:57:02.663Z,1.10
2022-09-04T03:02:15.890Z,1.20
2022-09-04T03:07:28.228Z,0.90
2022-09-04T03:12:50.176Z,1.20
2022-09-04T03:18:16.829Z,0.80
2022-09-04T03:23:33.356Z,1.10
2022-09-04T03:29:01.568Z,1.00
2022-09-04T03:34:11.208Z,0.70
2022-09-04T03:39:31.274Z,1.00
2022-09-04T03:44:50.471Z,0.90
2022-09-04T03:50:18.282Z,1.20
2022-09-04T03:55:48.479Z,1.10
2022-09-04T04:01:27.197Z,1.20
2022-09-04T04:06:30.476Z,1.00
2022-09-04T04:11:51.601Z,0.90
2022-09-04T04:17:22.661Z,0.90
2022-09-04T04:22:45.218Z,0.70
2022-09-04T04:28:07.581Z,1.20
2022-09-04T04:33:42.842Z,1.00
2022-09-04T04:39:01.204Z,0.60
2022-09-04T04:44:17.497Z,0.70
2022-09-04T04:49:29.431Z,0.90
2022-09-04T04:54:51.687Z,0.80
2022-09-04T05:00:08.723Z,0.80
2022-09-04T05:05:23.805Z,1.90
2022-09-04T05:10:42.067Z,0.80
2022-09-04T05:16:10.249Z,1.00
2022-09-04T05:21:38.560Z,0.80
2022-09-04T05:26:50.372Z,0.80
2022-09-04T05:32:05.675Z,0.50
2022-09-04T05:37:23.781Z,1.00
2022-09-04T05:42:42.901Z,0.80
2022-09-04T05:47:46.209Z,0.90
2022-09-04T05:53:11.024Z,0.90
2022-09-04T05:58:20.206Z,0.90
2022-09-04T06:03:38.739Z,0.80
2022-09-04T06:08:52.394Z,0.60
2022-09-04T06:14:07.418Z,0.70
2022-09-04T06:19:38.541Z,0.90
2022-09-04T06:25:10.754Z,0.80
2022-09-04T06:30:16.131Z,0.60
2022-09-04T06:35:27.198Z,0.80
2022-09-04T06:40:39.195Z,0.70
2022-09-04T06:46:24.168Z,0.70
2022-09-04T06:51:39.579Z,1.00
2022-09-04T06:56:54.567Z,0.80
2022-09-04T07:02:22.700Z,0.70
2022-09-04T07:07:44.755Z,0.60
2022-09-04T07:13:25.903Z,0.70
2022-09-04T07:18:54.812Z,0.70
2022-09-04T07:24:02.832Z,0.70
2022-09-04T07:29:25.750Z,0.60
2022-09-04T07:34:35.467Z,0.60
2022-09-04T07:40:30.799Z,0.60
2022-09-04T07:45:35.390Z,0.80
2022-09-04T07:51:05.097Z,0.70
2022-09-04T07:56:39.505Z,0.90
2022-09-04T08:01:57.578Z,1.30
2022-09-04T08:07:10.796Z,0.80
2022-09-04T08:12:35.781Z,0.90
2022-09-04T08:17:58.183Z,0.60
2022-09-04T08:23:17.366Z,1.30
2022-09-04T08:28:36.143Z,0.70
2022-09-04T08:33:45.593Z,0.50
2022-09-04T08:38:49.110Z,0.70
2022-09-04T08:43:58.667Z,0.70
2022-09-04T08:49:12.011Z,0.80
2022-09-04T08:54:33.349Z,0.70
2022-09-04T09:00:08.887Z,0.60
2022-09-04T09:05:46.936Z,0.50
2022-09-04T09:11:15.436Z,0.50
2022-09-04T09:16:20.649Z,0.60
2022-09-04T09:21:39.364Z,0.50
2022-09-04T09:26:55.884Z,0.90
2022-09-04T09:32:40.154Z,0.90
2022-09-04T09:43:53.543Z,0.50
2022-09-04T09:49:27.063Z,0.50
2022-09-04T09:54:51.877Z,0.30
2022-09-04T10:00:13.724Z,0.30
2022-09-04T10:05:19.797Z,0.40
2022-09-04T10:10:46.196Z,0.30
2022-09-04T10:16:06.662Z,0.20
2022-09-04T10:21:21.156Z,0.40
2022-09-04T10:26:43.185Z,0.50
2022-09-04T10:32:07.486Z,0.70
2022-09-04T10:37:35.578Z,1.70
2022-09-04T10:43:12.886Z,0.30
2022-09-04T10:48:28.870Z,0.30
2022-09-04T10:54:15.726Z,0.60
2022-09-04T10:59:36.546Z,0.30
2022-09-04T11:04:49.381Z,0.30
2022-09-04T11:10:11.428Z,0.40
2022-09-04T11:15:41.774Z,0.30
2022-09-04T11:21:21.436Z,0.30
2022-09-04T11:27:05.974Z,0.40
2022-09-04T11:32:38.306Z,0.50
2022-09-04T11:37:41.515Z,0.30
2022-09-04T11:43:15.953Z,0.40
2022-09-04T11:48:31.656Z,0.30
2022-09-04T11:54:00.976Z,0.40
2022-09-04T11:59:28.452Z,0.50
2022-09-04T12:04:43.539Z,0.30
2022-09-04T12:10:11.257Z,0.20
2022-09-04T12:15:38.804Z,0.30
2022-09-04T12:20:57.065Z,0.20
2022-09-04T12:26:21.881Z,0.20
2022-09-04T12:31:51.927Z,0.30
2022-09-04T12:37:24.413Z,0.50
2022-09-04T12:42:51.989Z,0.30
2022-09-04T12:48:20.492Z,0.50
2022-09-04T12:53:47.015Z,0.20
2022-09-04T12:59:25.795Z,0.30
2022-09-04T13:04:41.087Z,0.40
2022-09-04T13:09:57.805Z,0.40
2022-09-04T13:15:22.424Z,0.50
2022-09-04T13:20:57.470Z,0.50
2022-09-04T13:26:30.170Z,0.40
2022-09-04T13:32:10.655Z,0.20
2022-09-04T13:37:45.602Z,0.40
2022-09-04T13:42:54.752Z,0.40
2022-09-04T13:48:08.917Z,0.40
2022-09-04T13:53:21.546Z,0.40
2022-09-04T13:58:34.379Z,0.50
2022-09-04T14:04:02.854Z,0.20
2022-09-04T14:09:07.113Z,0.40
2022-09-04T14:14:31.209Z,0.50
2022-09-04T14:19:59.506Z,0.30
2022-09-04T14:25:16.096Z,0.50
2022-09-04T14:30:23.310Z,0.50
2022-09-04T14:36:05.861Z,0.30
2022-09-04T14:41:24.738Z,0.30
2022-09-04T14:46:56.429Z,0.30
2022-09-04T14:52:10.068Z,0.40
2022-09-04T14:57:39.899Z,0.30
2022-09-04T15:02:56.418Z,0.80
2022-09-04T15:08:03.569Z,1.50
2022-09-04T15:13:19.998Z,2.50
2022-09-04T15:18:34.304Z,4.00
2022-09-04T15:24:26.988Z,3.00
2022-09-04T15:29:33.974Z,2.50
2022-09-04T15:34:38.745Z,1.60
2022-09-04T15:39:49.148Z,1.90
2022-09-04T15:44:52.811Z,2.20
2022-09-04T15:50:01.858Z,1.40
2022-09-04T15:55:30.155Z,1.10
2022-09-04T16:00:56.682Z,1.10
2022-09-04T16:06:06.676Z,1.00
2022-09-04T16:11:22.172Z,0.90
2022-09-04T16:16:48.936Z,0.90
2022-09-04T16:22:27.774Z,0.60
2022-09-04T16:27:32.172Z,0.50
2022-09-04T16:32:36.342Z,0.60
2022-09-04T16:37:50.406Z,0.50
2022-09-04T16:43:17.064Z,0.60
2022-09-04T16:48:34.548Z,0.50
2022-09-04T16:53:50.922Z,0.40
2022-09-04T16:59:00.787Z,0.30
2022-09-04T17:04:17.204Z,0.70
2022-09-04T17:09:30.140Z,0.80
2022-09-04T17:14:43.591Z,0.80
2022-09-04T17:20:04.928Z,0.70
2022-09-04T17:29:10.276Z,0.70
2022-09-04T17:30:56.889Z,0.70
2022-09-04T17:42:08.471Z,0.70
2022-09-04T17:47:34.552Z,1.70
2022-09-04T17:53:04.123Z,1.50
2022-09-04T17:58:11.232Z,1.50
2022-09-04T18:04:02.888Z,1.70
2022-09-04T18:09:40.022Z,1.30
2022-09-04T18:15:12.902Z,1.40
2022-09-04T18:20:51.590Z,1.20
2022-09-04T18:26:22.473Z,1.40
2022-09-04T18:37:12.806Z,1.50
2022-09-04T18:37:46.387Z,2.00
2022-09-04T18:46:06.574Z,2.80
2022-09-04T18:50:30.866Z,3.10
2022-09-04T18:53:51.432Z,4.00
2022-09-04T18:59:01.097Z,3.60
2022-09-04T19:04:45.418Z,2.90
2022-09-04T19:10:21.137Z,2.20
2022-09-04T19:15:27.474Z,2.00
2022-09-04T19:21:26.232Z,1.30
2022-09-04T19:26:47.658Z,1.10
2022-09-04T19:32:07.754Z,0.90
2022-09-04T19:38:22.640Z,1.70
2022-09-04T19:46:02.488Z,1.30
2022-09-04T19:52:58.935Z,1.20
2022-09-04T19:55:25.024Z,1.10
2022-09-04T20:06:20.255Z,1.30
2022-09-04T20:11:38.295Z,1.40
2022-09-04T20:17:13.919Z,1.50
2022-09-04T20:22:48.961Z,1.50
2022-09-04T20:28:16.437Z,1.60
2022-09-04T20:33:27.148Z,1.20
2022-09-04T20:38:51.220Z,1.50
2022-09-04T20:44:15.932Z,1.10
2022-09-04T20:52:55.662Z,1.10
2022-09-04T20:55:46.082Z,1.00
2022-09-04T21:03:23.715Z,1.60
2022-09-04T21:06:32.166Z,1.00
2022-09-04T21:11:43.646Z,1.80
2022-09-04T21:17:33.487Z,1.30
2022-09-04T21:23:05.862Z,1.20
2022-09-04T21:28:33.945Z,0.90
2022-09-04T21:33:55.894Z,1.30
2022-09-04T21:39:10.878Z,1.60
2022-09-04T21:44:22.793Z,1.00
2022-09-04T21:49:38.285Z,1.30
2022-09-04T21:56:44.851Z,1.20
2022-09-04T22:02:41.131Z,1.10
2022-09-04T22:06:03.692Z,1.20
2022-09-04T22:13:38.285Z,0.90
2022-09-04T22:16:52.499Z,0.90
2022-09-04T22:22:03.548Z,1.10
2022-09-04T22:27:28.407Z,1.20
2022-09-04T22:33:16.673Z,0.90
2022-09-04T22:38:35.138Z,1.10
2022-09-04T22:43:46.845Z,1.40
2022-09-04T22:49:20.057Z,1.10
2022-09-04T22:54:50.709Z,1.10
2022-09-04T23:00:13.068Z,1.00
2022-09-04T23:05:35.014Z,1.00
2022-09-04T23:14:02.315Z,1.00
2022-09-04T23:16:54.543Z,1.70
2022-09-04T23:26:45.679Z,1.40
2022-09-04T23:28:40.800Z,1.20
2022-09-04T23:33:56.502Z,1.30
2022-09-04T23:39:35.409Z,1.50
2022-09-04T23:45:30.574Z,1.50
2022-09-04T23:56:42.837Z,1.50
